SWA214 KLAS-KDEN
Flight info
| Callsign | SWA214 |
|---|---|
| Flight time | N/A |
| Altitude | 37000 |
| Route | GIDGT3 TUKRR BUMMP SSKII4 |
| Aircraft | B38M/M-SDE1FGHILORVWXY/HB1 |
Departure
| Time | 2026-05-07 20:35 |
|---|---|
| Airport | Harry Reid International Airport (KLAS) |
Arrival
| Time | N/A |
|---|---|
| Airport | Denver International Airport (KDEN) |
| Time | Latitude | Longitude | Altitude | Speed | Heading |
|---|---|---|---|---|---|
| 2026-05-07 20:08 | 36.08048 | -115.14561 | 2118 ft | 0 kts | 270° |
| 2026-05-07 20:25 | 36.08048 | -115.14551 | 2119 ft | 3 kts | 270° |
| 2026-05-07 20:25 | 36.08048 | -115.14530 | 2118 ft | 2 kts | 270° |
| 2026-05-07 20:26 | 36.08050 | -115.14507 | 2117 ft | 3 kts | 246° |
| 2026-05-07 20:26 | 36.08061 | -115.14491 | 2117 ft | 3 kts | 202° |
| 2026-05-07 20:26 | 36.08079 | -115.14487 | 2117 ft | 3 kts | 178° |
| 2026-05-07 20:26 | 36.08092 | -115.14488 | 2116 ft | 1 kts | 176° |
| 2026-05-07 20:27 | 36.08095 | -115.14488 | 2116 ft | 0 kts | 176° |
| 2026-05-07 20:31 | 36.08027 | -115.14484 | 2118 ft | 19 kts | 178° |
| 2026-05-07 20:31 | 36.07885 | -115.14479 | 2120 ft | 14 kts | 168° |
| 2026-05-07 20:32 | 36.07831 | -115.14366 | 2122 ft | 21 kts | 94° |
| 2026-05-07 20:32 | 36.07828 | -115.14151 | 2120 ft | 30 kts | 90° |
| 2026-05-07 20:32 | 36.07826 | -115.13855 | 2127 ft | 38 kts | 89° |
| 2026-05-07 20:32 | 36.07829 | -115.13512 | 2128 ft | 40 kts | 90° |
| 2026-05-07 20:33 | 36.07828 | -115.13157 | 2123 ft | 45 kts | 90° |
| 2026-05-07 20:33 | 36.07828 | -115.12746 | 2118 ft | 50 kts | 90° |
| 2026-05-07 20:33 | 36.07830 | -115.12354 | 2120 ft | 32 kts | 90° |
| 2026-05-07 20:33 | 36.07780 | -115.12195 | 2122 ft | 20 kts | 127° |
| 2026-05-07 20:34 | 36.07712 | -115.12129 | 2126 ft | 0 kts | 169° |
| 2026-05-07 20:34 | 36.07686 | -115.12130 | 2127 ft | 13 kts | 187° |
| 2026-05-07 20:34 | 36.07638 | -115.12260 | 2130 ft | 32 kts | 268° |
| 2026-05-07 20:35 | 36.07638 | -115.12792 | 2125 ft | 100 kts | 270° |
| 2026-05-07 20:35 | 36.07633 | -115.13964 | 2126 ft | 171 kts | 270° |
| 2026-05-07 20:35 | 36.07681 | -115.15589 | 2538 ft | 203 kts | 276° |
| 2026-05-07 20:35 | 36.07836 | -115.17411 | 3380 ft | 214 kts | 277° |
| 2026-05-07 20:36 | 36.07831 | -115.19302 | 4277 ft | 232 kts | 269° |
| 2026-05-07 20:36 | 36.07763 | -115.21452 | 4550 ft | 272 kts | 270° |
| 2026-05-07 20:36 | 36.07716 | -115.23978 | 4566 ft | 309 kts | 271° |
| 2026-05-07 20:36 | 36.08068 | -115.26733 | 4627 ft | 344 kts | 296° |
| 2026-05-07 20:37 | 36.09615 | -115.28879 | 5810 ft | 332 kts | 328° |
| 2026-05-07 20:37 | 36.11785 | -115.29847 | 6920 ft | 335 kts | 350° |
| 2026-05-07 20:37 | 36.14119 | -115.29785 | 7850 ft | 342 kts | 13° |